This is the latest recevied weather packets stored in our database for station/object HB9HJL-11. If no packets are shown the sender has not sent any weather packets the latest 10 day(s).
| Time | Temp. | Humidity | Pressure | Rain* | Wind** | Luminosity | Snow |
|---|---|---|---|---|---|---|---|
| 1777392144 | 19.44° C | 34% | 925 hPa | - | - | - | - |
| 1777391243 | 19.44° C | 34% | 924 hPa | - | - | - | - |
| 1777390343 | 20° C | 34% | 926 hPa | - | - | - | - |
| 1777389443 | 20° C | 34% | 925 hPa | - | - | - | - |
| 1777388543 | 20.56° C | 35% | 928 hPa | - | - | - | - |
| 1777387643 | 20.56° C | 35% | 928 hPa | - | - | - | - |
| 1777386743 | 20.56° C | 32% | 923 hPa | - | - | - | - |
| 1777385843 | 21.11° C | 32% | 924 hPa | - | - | - | - |
| 1777384943 | 21.11° C | 33% | 926 hPa | - | - | - | - |
| 1777384043 | 21.67° C | 32% | 924 hPa | - | - | - | - |
| 1777383143 | 21.11° C | 33% | 924 hPa | - | - | - | - |
| 1777382243 | 21.67° C | 31% | 922 hPa | - | - | - | - |
| 1777381342 | 21.11° C | 31% | 922 hPa | - | - | - | - |
| 1777380442 | 21.67° C | 33% | 925 hPa | - | - | - | - |
| 1777379542 | 21.11° C | 31% | 922 hPa | - | - | - | - |
| 1777378642 | 21.11° C | 32% | 923 hPa | - | - | - | - |
| 1777377742 | 21.11° C | 34% | 928 hPa | - | - | - | - |
| 1777376842 | 20.56° C | 36% | 930 hPa | - | - | - | - |
| 1777375942 | 20.56° C | 35% | 927 hPa | - | - | - | - |
| 1777375042 | 21.11° C | 34% | 928 hPa | - | - | - | - |
| 1777374142 | 20.56° C | 35% | 927 hPa | - | - | - | - |
| 1777373242 | 19.44° C | 34% | 924 hPa | - | - | - | - |
| 1777372341 | 21.11° C | 36% | 930 hPa | - | - | - | - |
| 1777371441 | 20.56° C | 36% | 930 hPa | - | - | - | - |
| 1777370541 | 19.44° C | 35% | 925 hPa | - | - | - | - |
* Rain since midnight (hover to see other rain measurements)
** Current wind speed in m/s (hover to see current wind gust speed)